»·PEaware :: N4657 KBFL-KSMX

N4657 :: KBFL-KSMX

FLIGHT INFORMATION

Flight Status: Arrived
Operator: Privately registered:
United States
More flights under this callsign
Pilot: Daniel P. (20187)
Aircraft: PILATUS PC-12 EAGLE
(PC12)
More flights by this aircraft type
Origin: KBFL Meadows
United States
Destination: KSMX Santa Maria Pub/Capt Hancock
United States
More flights between these airports :: More routes between these airports
Route: +MEADO3 RZS V12 GVO
File this flight plan on PilotEdge
Remarks:
Altitude:
(Current/Filed)
7,000ft
Speed:
(Current/Filed)
190kts
Departed: 14-Sep-18 04:16 PM
Arrived: 14-Sep-18 04:55 PM
Distance/Time
Traveled:
75nm/0:39
Distance/Time
To Go:
Arrived

Flight Plot

Page will automatically refresh every two minutes.

Flight plan parsing failed; only flown route is shown


Map Options




Map Legend


Flown Route
Filed Route
Departure Airport
Arrival Airport
Navaid (VOR, NDB)
Fix

Horizontal Profiles

Position Reports

Time Latitude Longitude Heading Altitude Ground
Speed
14-Sep-18 15:55 35.429377 -119.046093 226 495ft 0kts
14-Sep-18 15:56 35.429377 -119.046093 226 495ft 0kts
14-Sep-18 15:57 35.429377 -119.046093 226 495ft 0kts
14-Sep-18 15:58 35.429377 -119.046093 226 495ft 0kts
14-Sep-18 15:59 35.429377 -119.046093 226 495ft 0kts
14-Sep-18 16:00 35.429377 -119.046093 226 495ft 0kts
14-Sep-18 16:01 35.429377 -119.046093 226 495ft 0kts
14-Sep-18 16:02 35.429376 -119.046094 226 495ft 0kts
14-Sep-18 16:03 35.429376 -119.046094 226 495ft 0kts
14-Sep-18 16:04 35.429376 -119.046094 226 495ft 0kts
14-Sep-18 16:05 35.429376 -119.046094 226 495ft 0kts
14-Sep-18 16:06 35.429376 -119.046094 226 495ft 0kts
14-Sep-18 16:07 35.429376 -119.046094 226 495ft 0kts
14-Sep-18 16:08 35.429376 -119.046094 226 495ft 0kts
14-Sep-18 16:09 35.429376 -119.046094 226 495ft 0kts
14-Sep-18 16:10 35.429376 -119.046094 226 495ft 0kts
14-Sep-18 16:11 35.429376 -119.046094 226 495ft 0kts
14-Sep-18 16:12 35.429376 -119.046094 226 495ft 0kts
14-Sep-18 16:13 35.429376 -119.046094 226 495ft 0kts
14-Sep-18 16:14 35.427966 -119.046862 134 487ft 9kts
14-Sep-18 16:15 35.425710 -119.044756 229 480ft 0kts
14-Sep-18 16:16 35.425710 -119.044756 229 480ft 0kts
14-Sep-18 16:17 35.425710 -119.044756 229 480ft 0kts
14-Sep-18 16:18 35.430319 -119.051936 316 485ft 105kts
14-Sep-18 16:19 35.451416 -119.079561 312 2025ft 110kts
14-Sep-18 16:20 35.474055 -119.109663 312 3008ft 147kts
14-Sep-18 16:21 35.478968 -119.150650 206 3320ft 151kts
14-Sep-18 16:22 35.440895 -119.165252 198 4511ft 141kts
14-Sep-18 16:23 35.394516 -119.180202 198 5703ft 192kts
14-Sep-18 16:24 35.341299 -119.197879 203 6904ft 201kts
14-Sep-18 16:25 35.292983 -119.230813 212 8096ft 199kts
14-Sep-18 16:26 35.242161 -119.266288 212 8002ft 214kts
14-Sep-18 16:27 35.190736 -119.302030 212 8001ft 212kts
14-Sep-18 16:28 35.135356 -119.325533 192 7974ft 215kts
14-Sep-18 16:29 35.076318 -119.337591 192 7974ft 215kts
14-Sep-18 16:30 35.017654 -119.349534 192 7999ft 214kts
14-Sep-18 16:31 34.958927 -119.361903 192 7989ft 213kts
14-Sep-18 16:32 34.909019 -119.395436 218 7980ft 209kts
14-Sep-18 16:33 34.863673 -119.438619 217 7977ft 209kts
14-Sep-18 16:34 34.817829 -119.481812 217 7977ft 208kts
14-Sep-18 16:35 34.772083 -119.524852 217 7976ft 208kts
14-Sep-18 16:36 34.724828 -119.565473 216 7977ft 208kts
14-Sep-18 16:37 34.678951 -119.608224 217 7976ft 208kts
14-Sep-18 16:38 34.633635 -119.651657 217 7976ft 208kts
14-Sep-18 16:39 34.588203 -119.695279 217 7977ft 208kts
14-Sep-18 16:40 34.542697 -119.738924 217 7977ft 208kts
14-Sep-18 16:41 34.511871 -119.793206 268 7981ft 215kts
14-Sep-18 16:42 34.515970 -119.865650 270 7984ft 215kts
14-Sep-18 16:43 34.519990 -119.925727 270 7990ft 215kts
14-Sep-18 16:44 34.525682 -120.009931 270 7997ft 214kts
14-Sep-18 16:45 34.530742 -120.081621 278 7996ft 215kts
14-Sep-18 16:46 34.566491 -120.126032 315 8003ft 226kts
14-Sep-18 16:47 34.614570 -120.173699 316 7609ft 220kts
14-Sep-18 16:48 34.666412 -120.225076 316 6426ft 186kts
14-Sep-18 16:49 34.702179 -120.260879 316 5604ft 216kts
14-Sep-18 16:50 34.748089 -120.306044 320 4627ft 186kts
14-Sep-18 16:51 34.791545 -120.339760 324 3963ft 145kts
14-Sep-18 16:52 34.818296 -120.361874 320 4001ft 115kts
14-Sep-18 16:53 34.840825 -120.382264 315 3562ft 97kts
14-Sep-18 16:54 34.858459 -120.403724 310 2409ft 85kts
14-Sep-18 16:55 34.874177 -120.423785 312 1209ft 75kts
14-Sep-18 16:56 34.889096 -120.441515 313 396ft 75kts
14-Sep-18 16:57 34.898510 -120.452322 16 265ft 9kts
14-Sep-18 16:58 34.898683 -120.451202 92 265ft 6kts
14-Sep-18 16:59 34.898257 -120.448495 138 265ft 10kts
14-Sep-18 17:00 34.897685 -120.447047 34 265ft 0kts
14-Sep-18 17:01 34.897685 -120.447047 34 265ft 0kts
14-Sep-18 17:02 34.897685 -120.447047 34 265ft 0kts
14-Sep-18 17:03 34.897685 -120.447047 34 265ft 0kts
14-Sep-18 17:04 34.897685 -120.447047 34 265ft 0kts
14-Sep-18 17:05 34.897685 -120.447047 34 265ft 0kts
14-Sep-18 17:06 34.897685 -120.447047 34 265ft 0kts
14-Sep-18 17:07 34.897685 -120.447047 34 265ft 0kts
14-Sep-18 17:08 34.897685 -120.447047 34 265ft 0kts
14-Sep-18 17:09 34.897685 -120.447047 34 265ft 0kts
14-Sep-18 17:10 34.897685 -120.447047 34 265ft 0kts
14-Sep-18 17:11 34.897685 -120.447047 34 265ft 0kts

Navigation Log

Ident Type
Flight plan parsing failed, navigation log unavailable